Time;durP1;ratioP1;P1;durP2;ratioP2;P2;SDS_P1;SDS_P2;PMS_P1;PMS_P2;Temp;Humidity;BMP_temperature;BMP_pressure;BME280_temperature;BME280_humidity;BME280_pressure;Samples;Min_cycle;Max_cycle;Signal;HPM_P1;HPM_P2
2023/06/23 00:02:19;;;;;;;7.70;3.42;;;23.10;80.80;;;;;;7380696;19;20249;-73
2023/06/23 00:04:48;;;;;;;6.20;3.78;;;23.10;80.80;;;;;;7379048;19;20323;-74
2023/06/23 00:07:16;;;;;;;5.78;3.88;;;23.10;80.80;;;;;;7380234;19;20003;-73
2023/06/23 00:09:45;;;;;;;10.25;3.65;;;23.10;80.90;;;;;;7383473;19;20100;-73
2023/06/23 00:12:14;;;;;;;10.52;4.20;;;23.00;80.80;;;;;;7401499;19;20007;-73
2023/06/23 00:14:43;;;;;;;8.45;3.90;;;23.00;80.70;;;;;;7379418;19;20007;-73
2023/06/23 00:17:15;;;;;;;9.15;4.28;;;22.90;81.20;;;;;;7382951;19;20035;-73
2023/06/23 00:19:44;;;;;;;13.73;3.83;;;22.90;82.10;;;;;;7379996;19;20006;-74
2023/06/23 00:22:12;;;;;;;6.90;4.30;;;22.90;80.80;;;;;;7380470;19;20010;-73
2023/06/23 00:24:41;;;;;;;8.60;3.78;;;22.80;80.90;;;;;;7380225;19;20019;-73
2023/06/23 00:27:10;;;;;;;8.93;4.32;;;22.80;81.30;;;;;;7399743;19;20028;-73
2023/06/23 00:29:38;;;;;;;10.57;4.05;;;22.80;81.40;;;;;;7379871;19;20019;-73
2023/06/23 00:32:08;;;;;;;11.90;4.32;;;22.80;81.40;;;;;;7379642;19;20006;-73
2023/06/23 00:34:39;;;;;;;18.15;9.57;;;22.80;81.60;;;;;;7379749;19;19999;-73
2023/06/23 00:37:09;;;;;;;14.48;8.05;;;22.80;81.40;;;;;;7378747;19;20024;-73
2023/06/23 00:39:38;;;;;;;9.25;4.43;;;22.80;81.50;;;;;;7378735;19;20248;-73
2023/06/23 00:42:08;;;;;;;8.68;4.30;;;22.70;81.30;;;;;;7399268;19;20266;-73
2023/06/23 00:44:37;;;;;;;14.18;4.53;;;22.70;81.60;;;;;;7378398;19;20014;-73
2023/06/23 00:47:08;;;;;;;5.97;4.32;;;22.60;81.40;;;;;;7379387;19;20017;-73
2023/06/23 00:49:42;;;;;;;;;;;22.60;81.60;;;;;;7379558;19;20007;-73
2023/06/23 00:52:11;;;;;;;12.30;4.53;;;22.60;81.90;;;;;;7377781;19;19970;-74
2023/06/23 00:54:40;;;;;;;8.60;4.93;;;22.60;81.90;;;;;;7378524;19;19966;-73
2023/06/23 00:57:10;;;;;;;14.25;6.60;;;22.60;81.60;;;;;;7397509;19;20006;-73
2023/06/23 00:59:39;;;;;;;12.63;7.00;;;22.50;81.60;;;;;;7377274;19;20023;-73
2023/06/23 01:02:08;;;;;;;17.10;8.18;;;22.50;81.50;;;;;;7376730;19;20070;-73
2023/06/23 01:04:37;;;;;;;9.63;6.13;;;22.50;81.60;;;;;;7377629;19;20010;-72
2023/06/23 01:07:26;;;;;;;15.88;6.15;;;22.50;81.90;;;;;;7381746;19;20009;-73
2023/06/23 01:10:03;;;;;;;9.32;5.63;;;22.40;82.70;;;;;;7384944;19;20006;-73
2023/06/23 01:12:40;;;;;;;10.63;5.40;;;22.40;82.60;;;;;;7384677;19;20344;-73
2023/06/23 01:15:13;;;;;;;10.18;5.55;;;22.40;82.40;;;;;;7406239;19;20066;-73
2023/06/23 01:17:46;;;;;;;10.85;5.47;;;22.40;82.20;;;;;;7384352;19;20066;-73
2023/06/23 01:20:21;;;;;;;13.50;5.18;;;22.30;82.30;;;;;;7384247;19;20013;-73
2023/06/23 01:23:11;;;;;;;14.30;5.25;;;22.30;82.50;;;;;;7384938;19;20027;-73
2023/06/23 01:25:55;;;;;;;;;;;22.20;82.40;;;;;;7383796;19;19999;-73
2023/06/23 01:28:55;;;;;;;13.93;5.63;;;22.30;82.60;;;;;;7385697;19;19914;-73
2023/06/23 01:31:31;;;;;;;11.93;5.55;;;22.20;82.00;;;;;;7384111;19;20007;-73
2023/06/23 01:34:04;;;;;;;12.45;6.10;;;22.10;82.20;;;;;;7382101;19;20007;-73
2023/06/23 01:36:40;;;;;;;13.23;6.10;;;22.00;82.80;;;;;;7383041;19;20354;-73
2023/06/23 01:39:14;;;;;;;15.02;5.70;;;21.90;83.20;;;;;;7405507;19;20312;-74
2023/06/23 01:41:48;;;;;;;12.70;5.43;;;21.90;83.90;;;;;;7383668;19;20003;-74
2023/06/23 01:44:20;;;;;;;7.65;4.63;;;21.90;83.30;;;;;;7383642;19;20507;-74
2023/06/23 01:46:55;;;;;;;13.25;5.43;;;21.90;83.20;;;;;;7384928;19;20070;-74
2023/06/23 01:49:28;;;;;;;15.65;5.45;;;21.90;83.20;;;;;;7384224;19;20288;-74
2023/06/23 01:52:00;;;;;;;16.02;6.05;;;21.90;83.30;;;;;;7384525;19;20069;-74
2023/06/23 01:54:29;;;;;;;;;;;21.90;83.10;;;;;;7384785;19;20030;-73
2023/06/23 01:56:58;;;;;;;15.25;6.97;;;21.90;83.00;;;;;;7402729;19;19911;-73
2023/06/23 01:59:31;;;;;;;13.02;5.32;;;21.80;83.10;;;;;;7383698;19;20066;-73
2023/06/23 02:02:00;;;;;;;12.23;4.93;;;21.80;83.50;;;;;;7383458;19;19999;-74
2023/06/23 02:04:32;;;;;;;14.52;5.32;;;21.70;83.60;;;;;;7383318;19;20015;-74
2023/06/23 02:07:01;;;;;;;7.15;4.70;;;21.70;83.90;;;;;;7381863;19;20003;-72
2023/06/23 02:09:32;;;;;;;9.32;5.15;;;21.80;84.20;;;;;;7383593;19;20023;-72
2023/06/23 02:12:03;;;;;;;11.88;6.03;;;21.80;83.70;;;;;;7405249;19;20007;-73
2023/06/23 02:14:36;;;;;;;15.70;6.30;;;21.80;83.50;;;;;;7386881;19;20035;-73
2023/06/23 02:17:10;;;;;;;14.60;5.60;;;21.70;83.80;;;;;;7382142;19;20369;-73
2023/06/23 02:19:41;;;;;;;13.68;5.57;;;21.60;83.90;;;;;;7381770;19;20031;-73
2023/06/23 02:22:11;;;;;;;;;;;21.60;83.80;;;;;;7383941;19;20002;-72
2023/06/23 02:24:40;;;;;;;;;;;21.60;83.70;;;;;;7383250;19;19910;-72
2023/06/23 02:27:09;;;;;;;;;;;21.60;83.90;;;;;;7414973;19;19918;-73
2023/06/23 02:29:40;;;;;;;;;;;21.60;83.90;;;;;;7394839;19;19907;-72
2023/06/23 02:32:09;;;;;;;;;;;21.60;84.20;;;;;;7394255;19;20323;-72
2023/06/23 02:34:38;;;;;;;;;;;21.60;84.00;;;;;;7395232;19;19905;-73
2023/06/23 02:37:08;;;;;;;;;;;21.60;83.80;;;;;;7393017;19;19970;-72
2023/06/23 02:39:42;;;;;;;10.05;5.13;;;21.60;83.80;;;;;;7382588;19;20247;-72
2023/06/23 02:42:14;;;;;;;9.30;5.25;;;21.60;84.00;;;;;;7403774;19;20039;-73
2023/06/23 02:45:02;;;;;;;12.15;5.63;;;21.60;84.20;;;;;;7381698;19;20537;-73
2023/06/23 02:47:32;;;;;;;9.88;6.18;;;21.60;84.20;;;;;;7381343;19;20370;-73
2023/06/23 02:50:05;;;;;;;9.85;5.50;;;21.50;84.10;;;;;;7381923;19;20236;-73
2023/06/23 02:52:37;;;;;;;13.25;6.18;;;21.50;84.10;;;;;;7381042;19;20014;-73
2023/06/23 02:55:07;;;;;;;;;;;21.40;84.40;;;;;;7382681;19;20006;-73
2023/06/23 02:57:37;;;;;;;15.25;5.38;;;21.40;84.50;;;;;;7381899;19;19926;-73
2023/06/23 03:00:16;;;;;;;12.27;5.38;;;21.40;84.40;;;;;;7402899;19;20331;-73
2023/06/23 03:02:47;;;;;;;9.45;5.30;;;21.40;84.70;;;;;;7381073;19;20007;-73
2023/06/23 03:05:17;;;;;;;6.85;5.40;;;21.30;84.80;;;;;;7380594;19;19999;-73
2023/06/23 03:07:46;;;;;;;8.48;5.75;;;21.30;85.00;;;;;;7380854;19;20002;-73
2023/06/23 03:10:14;;;;;;;9.27;5.75;;;21.30;85.00;;;;;;7380754;19;19999;-73
2023/06/23 03:12:43;;;;;;;15.82;5.43;;;21.30;84.80;;;;;;7381480;19;20023;-73
2023/06/23 03:15:15;;;;;;;10.55;5.05;;;21.30;84.80;;;;;;7402200;19;20304;-73
2023/06/23 03:17:45;;;;;;;10.00;5.32;;;21.30;84.50;;;;;;7380171;19;20007;-73
2023/06/23 03:20:25;;;;;;;15.02;5.57;;;21.30;84.30;;;;;;7380500;19;20007;-73
2023/06/23 03:22:58;;;;;;;21.50;6.07;;;21.30;84.50;;;;;;7380782;19;20013;-73
2023/06/23 03:25:29;;;;;;;9.38;5.03;;;21.40;84.60;;;;;;7380013;19;20017;-73
2023/06/23 03:28:01;;;;;;;7.45;5.15;;;21.30;84.50;;;;;;7381464;19;20078;-73
2023/06/23 03:30:39;;;;;;;13.68;6.07;;;21.30;84.70;;;;;;7381413;19;20078;-74
2023/06/23 03:36:23;;;;;;;14.15;6.30;;;21.30;84.00;;;;;;7277778;19;2004427;-73
2023/06/23 03:38:57;;;;;;;10.52;6.40;;;21.20;84.20;;;;;;7403283;19;20023;-73
2023/06/23 03:41:29;;;;;;;11.02;5.13;;;21.20;84.50;;;;;;7380943;19;20278;-73
2023/06/23 03:44:01;;;;;;;9.48;5.35;;;21.20;84.10;;;;;;7381216;19;20075;-73
2023/06/23 03:46:47;;;;;;;11.73;5.10;;;21.20;84.10;;;;;;7381126;19;20073;-73
2023/06/23 03:49:18;;;;;;;9.52;5.90;;;21.30;84.30;;;;;;7380174;19;20020;-73
2023/06/23 03:51:51;;;;;;;17.37;6.33;;;21.30;84.50;;;;;;7381129;19;20282;-73
2023/06/23 03:54:21;;;;;;;12.07;5.97;;;21.30;84.40;;;;;;7402601;19;20010;-73
2023/06/23 03:56:51;;;;;;;15.13;5.90;;;21.20;84.10;;;;;;7380094;19;20023;-73
2023/06/23 03:59:23;;;;;;;9.38;5.82;;;21.20;83.80;;;;;;7380024;19;20032;-73
2023/06/23 04:01:56;;;;;;;14.95;5.72;;;21.20;83.90;;;;;;7379590;19;19998;-73
2023/06/23 04:04:26;;;;;;;10.88;5.65;;;21.20;84.10;;;;;;7379664;19;20003;-73
2023/06/23 04:06:55;;;;;;;8.90;5.53;;;21.20;84.20;;;;;;7378867;19;20010;-73
2023/06/23 04:09:27;;;;;;;10.10;5.60;;;21.20;84.50;;;;;;7387188;19;20010;-73
2023/06/23 04:11:58;;;;;;;9.95;6.28;;;21.10;84.70;;;;;;7398362;19;20366;-72
2023/06/23 04:14:28;;;;;;;13.00;6.25;;;21.10;84.90;;;;;;7378629;19;20027;-72
2023/06/23 04:17:01;;;;;;;11.40;6.95;;;21.10;85.20;;;;;;7378962;19;20009;-72
2023/06/23 04:19:32;;;;;;;13.88;6.32;;;21.00;85.40;;;;;;7379258;19;20070;-72
2023/06/23 04:22:03;;;;;;;11.90;6.20;;;21.00;85.60;;;;;;7379001;19;20338;-72
2023/06/23 04:24:34;;;;;;;11.98;5.68;;;21.00;86.50;;;;;;7379133;19;20031;-73
2023/06/23 04:27:03;;;;;;;;;;;21.00;85.60;;;;;;7399555;19;20015;-73
2023/06/23 04:29:36;;;;;;;13.32;6.47;;;21.00;85.80;;;;;;7378330;19;19911;-73
2023/06/23 04:32:09;;;;;;;14.48;6.53;;;21.00;86.40;;;;;;7377798;19;20032;-73
2023/06/23 04:34:38;;;;;;;17.20;6.57;;;21.00;85.60;;;;;;7378677;19;20042;-73
2023/06/23 04:37:12;;;;;;;16.58;6.65;;;21.00;85.60;;;;;;7380933;19;20011;-72
2023/06/23 04:39:49;;;;;;;15.52;6.43;;;21.00;85.90;;;;;;7378396;19;20346;-73
2023/06/23 04:42:28;;;;;;;14.40;6.32;;;21.00;86.00;;;;;;7404985;19;20028;-72
2023/06/23 04:45:03;;;;;;;13.48;6.07;;;21.00;86.00;;;;;;7385304;19;20089;-73
2023/06/23 04:47:40;;;;;;;15.85;6.20;;;21.00;86.10;;;;;;7382728;19;20012;-72
2023/06/23 04:50:13;;;;;;;12.75;6.05;;;21.10;86.10;;;;;;7385181;19;20010;-73
2023/06/23 04:52:47;;;;;;;9.90;5.68;;;21.10;86.30;;;;;;7385653;19;20385;-72
2023/06/23 04:55:19;;;;;;;12.15;6.15;;;21.20;86.40;;;;;;7385481;19;20052;-73
2023/06/23 04:57:50;;;;;;;12.88;6.35;;;21.20;86.10;;;;;;7385684;19;20113;-73
2023/06/23 05:00:24;;;;;;;11.93;6.10;;;21.20;85.90;;;;;;7408718;19;20019;-72
2023/06/23 05:02:57;;;;;;;17.00;6.03;;;21.20;86.20;;;;;;7384785;19;20353;-73
2023/06/23 05:05:30;;;;;;;16.05;6.75;;;21.30;86.40;;;;;;7384646;19;20002;-72
2023/06/23 05:08:00;;;;;;;15.15;6.35;;;21.30;86.30;;;;;;7384167;19;20010;-73
2023/06/23 05:10:30;;;;;;;11.10;6.40;;;21.30;86.30;;;;;;7385084;19;20058;-72
2023/06/23 05:13:02;;;;;;;11.23;6.65;;;21.30;86.60;;;;;;7384791;19;20003;-72
2023/06/23 05:15:31;;;;;;;14.50;6.72;;;21.30;86.70;;;;;;7384402;19;20236;-73
2023/06/23 05:18:05;;;;;;;20.95;6.63;;;21.30;87.00;;;;;;7406087;19;20019;-73
2023/06/23 05:20:37;;;;;;;10.57;6.40;;;21.40;87.20;;;;;;7384130;19;20006;-73
2023/06/23 05:23:06;;;;;;;11.98;6.07;;;21.40;86.90;;;;;;7384360;19;20429;-73
2023/06/23 05:25:37;;;;;;;13.73;6.53;;;21.50;87.00;;;;;;7384694;19;20007;-73
2023/06/23 05:28:07;;;;;;;10.32;6.68;;;21.50;87.20;;;;;;7382845;19;20007;-73
2023/06/23 05:30:38;;;;;;;14.98;7.05;;;21.50;87.30;;;;;;7384674;19;20002;-73
2023/06/23 05:33:12;;;;;;;18.08;6.18;;;21.50;87.40;;;;;;7409941;19;20038;-73
2023/06/23 05:35:44;;;;;;;12.68;6.90;;;21.50;87.50;;;;;;7383966;19;20369;-73
2023/06/23 05:38:18;;;;;;;17.52;6.95;;;21.60;87.60;;;;;;7383219;19;20003;-73
2023/06/23 05:40:46;;;;;;;16.38;6.43;;;21.60;87.70;;;;;;7384442;19;20002;-73
2023/06/23 05:43:15;;;;;;;16.58;6.70;;;21.70;88.00;;;;;;7384220;19;20007;-73
2023/06/23 05:45:44;;;;;;;10.93;6.07;;;21.70;87.70;;;;;;7384369;19;20084;-73
2023/06/23 05:48:27;;;;;;;10.70;5.95;;;21.80;87.70;;;;;;7402811;19;20011;-73
2023/06/23 05:50:57;;;;;;;14.15;6.13;;;21.80;87.70;;;;;;7383730;19;20062;-73
2023/06/23 05:53:29;;;;;;;12.23;6.18;;;21.90;87.80;;;;;;7383846;19;19999;-73
2023/06/23 05:56:06;;;;;;;13.15;5.97;;;22.00;87.90;;;;;;7385215;19;20065;-74
2023/06/23 05:58:41;;;;;;;26.92;6.57;;;22.00;87.90;;;;;;7384173;19;20084;-73
2023/06/23 06:01:14;;;;;;;17.92;6.10;;;22.10;88.30;;;;;;7383541;19;20094;-74
2023/06/23 06:03:49;;;;;;;8.85;6.10;;;22.10;87.90;;;;;;7381382;19;20016;-73
2023/06/23 06:06:18;;;;;;;11.05;5.90;;;22.10;88.00;;;;;;7404714;19;20054;-73
2023/06/23 06:08:48;;;;;;;11.85;5.30;;;22.10;88.00;;;;;;7382646;19;20016;-73
2023/06/23 06:11:19;;;;;;;8.88;5.60;;;22.10;88.40;;;;;;7382458;19;20560;-73
2023/06/23 06:13:49;;;;;;;7.38;5.45;;;22.10;88.80;;;;;;7382843;19;20017;-73
2023/06/23 06:16:20;;;;;;;11.43;5.53;;;22.10;88.00;;;;;;7382096;19;19998;-73
2023/06/23 06:18:54;;;;;;;8.77;5.00;;;22.20;88.30;;;;;;7383788;19;20007;-73
2023/06/23 06:21:25;;;;;;;15.35;5.55;;;22.10;88.50;;;;;;7404857;19;20007;-72
2023/06/23 06:23:55;;;;;;;11.10;5.40;;;22.10;88.90;;;;;;7382527;19;20011;-76
2023/06/23 06:26:25;;;;;;;14.60;5.32;;;22.20;88.60;;;;;;7382109;19;20017;-73
2023/06/23 06:28:58;;;;;;;8.73;5.18;;;22.20;88.00;;;;;;7382482;19;20084;-73
2023/06/23 06:31:29;;;;;;;9.05;5.55;;;22.20;88.00;;;;;;7384393;19;20031;-74
2023/06/23 06:34:02;;;;;;;;;;;22.30;87.70;;;;;;7382447;19;20007;-75
2023/06/23 06:36:34;;;;;;;12.23;5.07;;;22.20;87.90;;;;;;7381985;19;20255;-74
2023/06/23 06:39:05;;;;;;;10.85;5.45;;;22.10;87.70;;;;;;7405312;19;20014;-75
2023/06/23 06:41:35;;;;;;;9.65;5.50;;;22.20;88.10;;;;;;7382474;19;20327;-73
2023/06/23 06:44:04;;;;;;;12.20;5.70;;;22.30;87.80;;;;;;7382035;19;20028;-72
2023/06/23 06:46:33;;;;;;;10.73;5.47;;;22.10;87.80;;;;;;7381805;19;20023;-73
2023/06/23 06:49:05;;;;;;;8.73;4.82;;;22.10;88.10;;;;;;7382197;19;20070;-73
2023/06/23 06:51:36;;;;;;;13.43;5.05;;;22.10;88.30;;;;;;7379624;19;20389;-73
2023/06/23 06:54:04;;;;;;;11.50;5.72;;;22.20;88.30;;;;;;7403763;19;20006;-74
2023/06/23 06:56:33;;;;;;;9.82;4.88;;;22.30;88.00;;;;;;7381115;19;20066;-73
2023/06/23 06:59:02;;;;;;;12.05;4.63;;;22.30;88.20;;;;;;7381778;19;20074;-73
2023/06/23 07:01:31;;;;;;;11.30;5.40;;;22.40;88.00;;;;;;7381334;19;20058;-73
2023/06/23 07:04:01;;;;;;;8.52;5.20;;;22.50;87.50;;;;;;7378675;19;20410;-73
2023/06/23 07:06:34;;;;;;;12.35;5.55;;;22.50;87.50;;;;;;7381105;19;20023;-71
2023/06/23 07:09:03;;;;;;;8.20;5.80;;;22.60;87.70;;;;;;7400603;19;20002;-71
2023/06/23 07:11:32;;;;;;;15.50;5.13;;;22.60;86.90;;;;;;7380404;19;20393;-73
2023/06/23 07:14:01;;;;;;;11.18;5.13;;;22.60;87.20;;;;;;7380847;19;20007;-72
2023/06/23 07:16:33;;;;;;;11.77;5.60;;;22.60;87.10;;;;;;7382031;19;20003;-73
2023/06/23 07:19:02;;;;;;;8.80;5.28;;;22.60;87.40;;;;;;7381096;19;20013;-72
2023/06/23 07:21:33;;;;;;;9.55;4.88;;;22.70;86.90;;;;;;7380528;19;20262;-72
2023/06/23 07:24:01;;;;;;;;;;;22.70;87.10;;;;;;7403614;19;20019;-72
2023/06/23 07:26:30;;;;;;;12.80;5.00;;;22.80;86.50;;;;;;7379522;19;19907;-72
2023/06/23 07:28:59;;;;;;;12.35;5.00;;;22.90;86.50;;;;;;7379243;19;20042;-74
2023/06/23 07:31:28;;;;;;;8.63;4.53;;;22.90;86.80;;;;;;7380363;19;20126;-74
2023/06/23 07:33:57;;;;;;;6.93;4.80;;;22.90;87.30;;;;;;7380062;19;20056;-75
2023/06/23 07:36:25;;;;;;;13.23;4.85;;;23.00;87.30;;;;;;7378387;19;20024;-73
2023/06/23 07:38:57;;;;;;;13.77;5.70;;;23.10;87.10;;;;;;7399288;19;20009;-73
2023/06/23 07:41:25;;;;;;;9.93;5.38;;;23.10;87.00;;;;;;7379679;19;20022;-73
2023/06/23 07:43:54;;;;;;;9.35;5.05;;;23.10;86.80;;;;;;7380795;19;20027;-73
2023/06/23 07:46:23;;;;;;;9.60;4.57;;;23.20;86.90;;;;;;7380828;19;20014;-73
2023/06/23 07:48:52;;;;;;;8.07;4.70;;;23.30;86.80;;;;;;7379011;19;20358;-72
2023/06/23 07:51:21;;;;;;;10.85;4.65;;;23.30;86.50;;;;;;7402347;19;20033;-74
2023/06/23 07:53:49;;;;;;;11.65;4.38;;;23.40;86.60;;;;;;7382542;19;20007;-74
2023/06/23 07:56:21;;;;;;;11.15;4.85;;;23.40;86.30;;;;;;7382810;19;20027;-73
2023/06/23 07:58:49;;;;;;;;;;;23.30;86.20;;;;;;7383728;19;20027;-74
2023/06/23 08:01:19;;;;;;;11.02;4.20;;;23.40;86.40;;;;;;7382311;19;19948;-74
2023/06/23 08:03:48;;;;;;;8.63;3.80;;;23.50;86.30;;;;;;7381034;19;20010;-73
2023/06/23 08:06:23;;;;;;;10.55;4.82;;;23.50;86.30;;;;;;7401858;19;20386;-75
2023/06/23 08:08:52;;;;;;;9.40;4.40;;;23.60;86.50;;;;;;7378682;19;20007;-74
2023/06/23 08:11:23;;;;;;;9.75;4.72;;;23.70;86.80;;;;;;7383639;19;20020;-75
2023/06/23 08:13:53;;;;;;;8.63;4.47;;;23.60;86.60;;;;;;7385107;19;20043;-73
2023/06/23 08:16:22;;;;;;;6.85;4.50;;;23.70;86.30;;;;;;7380042;19;20015;-73
2023/06/23 08:18:51;;;;;;;9.07;4.38;;;23.80;86.20;;;;;;7380544;19;20373;-73
2023/06/23 08:21:20;;;;;;;9.18;4.13;;;23.80;86.10;;;;;;7404676;19;20015;-76
2023/06/23 08:23:48;;;;;;;6.88;4.28;;;23.70;85.60;;;;;;7379448;19;20023;-74
2023/06/23 08:26:18;;;;;;;10.18;4.13;;;23.70;86.10;;;;;;7378960;19;20393;-73
2023/06/23 08:28:50;;;;;;;10.02;4.15;;;23.70;85.50;;;;;;7378787;19;20042;-74
2023/06/23 08:31:18;;;;;;;8.73;4.78;;;23.80;85.60;;;;;;7378613;19;20281;-73
2023/06/23 08:33:47;;;;;;;5.05;3.88;;;23.60;86.50;;;;;;7378380;19;20395;-72
2023/06/23 08:36:16;;;;;;;6.30;3.75;;;23.80;86.80;;;;;;7398884;19;20066;-72
2023/06/23 08:38:44;;;;;;;8.00;3.72;;;23.80;85.80;;;;;;7378854;19;20090;-73
2023/06/23 08:41:13;;;;;;;8.88;4.22;;;23.90;85.50;;;;;;7379163;19;20321;-74
2023/06/23 08:43:46;;;;;;;6.25;3.92;;;24.00;85.70;;;;;;7379063;19;20015;-73
2023/06/23 08:46:21;;;;;;;10.32;4.18;;;23.90;84.70;;;;;;7378939;19;20010;-73
2023/06/23 08:48:53;;;;;;;10.20;3.85;;;23.90;85.30;;;;;;7377619;19;20024;-74
2023/06/23 08:51:22;;;;;;;7.90;4.10;;;24.00;84.70;;;;;;7398457;19;20035;-71
2023/06/23 08:53:51;;;;;;;8.93;3.80;;;24.00;84.40;;;;;;7378063;19;20007;-72
2023/06/23 08:56:20;;;;;;;7.20;3.45;;;24.10;83.10;;;;;;7378925;19;20006;-72
2023/06/23 08:58:52;;;;;;;7.22;3.50;;;24.10;82.80;;;;;;7383631;19;20006;-73
2023/06/23 09:01:23;;;;;;;6.05;3.58;;;24.10;82.30;;;;;;7383541;19;20042;-74
2023/06/23 09:03:52;;;;;;;;;;;24.10;81.70;;;;;;7382544;19;20002;-74
2023/06/23 09:06:21;;;;;;;6.07;4.20;;;24.10;81.20;;;;;;7401931;19;19915;-72
2023/06/23 09:08:52;;;;;;;8.40;2.92;;;24.10;80.90;;;;;;7377704;19;20003;-72
2023/06/23 09:11:21;;;;;;;6.07;2.95;;;24.20;80.90;;;;;;7377314;19;20006;-73
2023/06/23 09:13:56;;;;;;;12.82;3.20;;;24.20;79.30;;;;;;7378764;19;20078;-73
2023/06/23 09:16:29;;;;;;;4.78;2.97;;;24.30;79.70;;;;;;7380571;19;20020;-73
2023/06/23 09:18:58;;;;;;;5.97;2.83;;;24.30;79.40;;;;;;7382019;19;20006;-73
2023/06/23 09:21:28;;;;;;;8.00;3.00;;;24.30;78.90;;;;;;7380997;19;20020;-74
2023/06/23 09:24:04;;;;;;;8.07;3.47;;;24.30;78.70;;;;;;7402814;19;20002;-72
2023/06/23 09:26:32;;;;;;;10.25;2.78;;;24.30;78.00;;;;;;7377115;19;20034;-72
2023/06/23 09:29:19;;;;;;;6.47;2.75;;;24.40;78.00;;;;;;7383246;19;20011;-74
2023/06/23 09:31:52;;;;;;;6.93;3.40;;;24.40;77.20;;;;;;7384626;19;20016;-73
2023/06/23 09:34:24;;;;;;;4.70;3.30;;;24.40;77.60;;;;;;7383821;19;20052;-72
2023/06/23 09:36:53;;;;;;;3.35;3.05;;;24.40;77.20;;;;;;7383202;19;20006;-72
2023/06/23 09:39:24;;;;;;;7.20;2.83;;;24.40;77.30;;;;;;7404176;19;20018;-72
2023/06/23 09:41:58;;;;;;;5.65;3.03;;;24.50;75.90;;;;;;7384512;19;20014;-73
2023/06/23 09:44:38;;;;;;;7.47;3.28;;;24.50;75.80;;;;;;7384064;19;20323;-74
2023/06/23 09:47:10;;;;;;;9.57;5.88;;;24.40;76.50;;;;;;7383690;19;20093;-74
2023/06/23 09:49:43;;;;;;;10.85;4.20;;;24.40;76.20;;;;;;7382852;19;20010;-72
2023/06/23 09:52:18;;;;;;;9.05;3.45;;;24.50;76.20;;;;;;7384055;19;20011;-73
2023/06/23 09:54:46;;;;;;;5.55;3.05;;;24.60;75.40;;;;;;7382563;19;20015;-73
2023/06/23 09:57:17;;;;;;;7.90;3.42;;;24.70;75.80;;;;;;7406665;19;20062;-74
2023/06/23 09:59:47;;;;;;;9.33;3.10;;;24.70;76.00;;;;;;7384695;19;20007;-73
2023/06/23 10:02:25;;;;;;;4.95;3.55;;;24.70;76.50;;;;;;7383314;19;20019;-72
2023/06/23 10:05:00;;;;;;;15.30;7.55;;;24.90;76.70;;;;;;7382411;19;20003;-72
2023/06/23 10:07:30;;;;;;;9.02;4.30;;;24.80;76.30;;;;;;7381958;19;20010;-73
2023/06/23 10:10:01;;;;;;;6.35;3.40;;;24.90;76.70;;;;;;7387295;19;20006;-72
2023/06/23 10:12:32;;;;;;;9.80;3.92;;;24.90;76.40;;;;;;7384853;19;20010;-73
2023/06/23 10:15:01;;;;;;;9.15;3.58;;;25.00;75.80;;;;;;7407609;19;20006;-73
2023/06/23 10:17:32;;;;;;;6.22;3.47;;;25.20;76.60;;;;;;7382652;19;20094;-74
2023/06/23 10:20:03;;;;;;;;;;;25.30;76.40;;;;;;7383820;19;20010;-76
2023/06/23 10:22:32;;;;;;;7.43;3.58;;;25.40;74.10;;;;;;7383514;19;19939;-76
2023/06/23 10:25:02;;;;;;;5.05;3.08;;;25.30;74.10;;;;;;7382100;19;20066;-73
2023/06/23 10:27:34;;;;;;;5.90;3.55;;;25.30;73.10;;;;;;7386969;19;20223;-73
2023/06/23 10:30:04;;;;;;;6.00;3.58;;;25.40;72.80;;;;;;7408545;19;20003;-74
2023/06/23 10:32:37;;;;;;;12.18;3.33;;;25.40;73.70;;;;;;7385162;19;20006;-74
2023/06/23 10:35:08;;;;;;;7.80;3.60;;;25.50;73.80;;;;;;7382704;19;20094;-75
2023/06/23 10:37:38;;;;;;;4.72;3.30;;;25.60;71.80;;;;;;7380954;19;20066;-74
2023/06/23 10:40:10;;;;;;;7.70;3.70;;;25.60;71.90;;;;;;7380281;19;20067;-73
2023/06/23 10:42:39;;;;;;;4.95;3.50;;;25.60;71.40;;;;;;7380592;19;20031;-75
2023/06/23 10:45:10;;;;;;;4.95;3.28;;;25.60;72.20;;;;;;7403466;19;20066;-73
2023/06/23 10:47:42;;;;;;;6.43;3.28;;;25.70;73.30;;;;;;7381806;19;20066;-74
2023/06/23 10:50:12;;;;;;;5.47;3.30;;;25.90;72.50;;;;;;7381777;19;20019;-73
2023/06/23 10:52:41;;;;;;;6.53;3.55;;;26.00;71.30;;;;;;7382242;19;20016;-74
2023/06/23 10:55:40;;;;;;;7.65;3.25;;;25.90;71.00;;;;;;7381731;19;20049;-74
2023/06/23 10:58:16;;;;;;;4.60;3.22;;;25.90;70.90;;;;;;7381961;19;20003;-74
2023/06/23 11:00:49;;;;;;;4.40;3.20;;;26.00;70.50;;;;;;7380635;19;19996;-74
2023/06/23 11:03:30;;;;;;;11.27;3.55;;;26.00;71.80;;;;;;7403215;19;20010;-75
2023/06/23 11:06:00;;;;;;;8.63;3.40;;;26.10;70.90;;;;;;7381268;19;19998;-76
2023/06/23 11:08:35;;;;;;;5.45;3.05;;;26.20;69.30;;;;;;7380393;19;20067;-73
2023/06/23 11:11:06;;;;;;;5.95;3.50;;;26.20;70.00;;;;;;7381511;19;20428;-73
2023/06/23 11:13:41;;;;;;;15.57;7.70;;;26.30;69.70;;;;;;7380630;19;20006;-74
2023/06/23 11:16:16;;;;;;;10.43;4.38;;;26.40;70.20;;;;;;7383544;19;20086;-74
2023/06/23 11:18:57;;;;;;;10.68;6.90;;;26.40;68.40;;;;;;7386004;19;20006;-73
2023/06/23 11:21:33;;;;;;;13.40;8.98;;;26.30;68.30;;;;;;7384697;19;20015;-73
2023/06/23 11:24:16;;;;;;;5.65;3.90;;;26.30;69.00;;;;;;7403327;19;20024;-73
2023/06/23 11:26:46;;;;;;;7.10;3.65;;;26.30;66.80;;;;;;7380655;19;20014;-74
2023/06/23 11:29:20;;;;;;;4.65;3.20;;;26.30;67.50;;;;;;7381267;19;20009;-74
2023/06/23 11:32:05;;;;;;;4.85;3.40;;;26.40;65.00;;;;;;7381699;19;20402;-73
2023/06/23 11:34:54;;;;;;;5.78;4.30;;;26.40;64.70;;;;;;7384633;19;20011;-73
2023/06/23 11:37:24;;;;;;;6.75;3.22;;;26.50;62.90;;;;;;7383664;19;20007;-73
2023/06/23 11:39:56;;;;;;;7.22;3.35;;;26.60;65.50;;;;;;7382653;19;20006;-72
2023/06/23 11:42:25;;;;;;;5.38;3.05;;;26.60;66.70;;;;;;7389512;19;20014;-73
2023/06/23 11:44:58;;;;;;;6.55;3.50;;;26.70;63.30;;;;;;7401638;19;20060;-77
2023/06/23 11:47:27;;;;;;;3.92;3.03;;;26.70;62.90;;;;;;7379141;19;20030;-74
2023/06/23 11:49:59;;;;;;;2.95;2.67;;;26.80;63.50;;;;;;7379111;19;20007;-73
2023/06/23 11:52:29;;;;;;;5.57;3.17;;;26.90;64.20;;;;;;7380645;19;20286;-72
2023/06/23 11:54:59;;;;;;;6.18;2.95;;;27.00;63.00;;;;;;7378346;19;20386;-73
2023/06/23 11:57:31;;;;;;;5.33;3.33;;;27.10;62.00;;;;;;7379489;19;20007;-72
2023/06/23 11:59:59;;;;;;;5.55;3.30;;;27.10;62.50;;;;;;7400793;19;20268;-72
2023/06/23 12:02:29;;;;;;;8.13;3.70;;;27.20;62.10;;;;;;7379172;19;20075;-73
2023/06/23 12:05:01;;;;;;;7.30;3.30;;;27.20;61.70;;;;;;7379777;19;20010;-71
2023/06/23 12:07:32;;;;;;;4.80;3.22;;;27.30;62.30;;;;;;7378914;19;20003;-72
2023/06/23 12:10:02;;;;;;;4.38;3.13;;;27.30;61.30;;;;;;7378772;19;20039;-73
2023/06/23 12:12:31;;;;;;;4.05;2.92;;;27.20;59.80;;;;;;7377451;19;20294;-71
2023/06/23 12:15:02;;;;;;;9.55;3.65;;;27.20;60.40;;;;;;7398616;19;20010;-71
2023/06/23 12:17:31;;;;;;;4.88;3.00;;;27.30;59.60;;;;;;7378662;19;20071;-73
2023/06/23 12:20:02;;;;;;;8.57;2.75;;;27.30;59.70;;;;;;7379122;19;20044;-72
2023/06/23 12:22:38;;;;;;;4.38;3.05;;;27.40;60.10;;;;;;7379482;19;20006;-72
2023/06/23 12:25:08;;;;;;;4.60;2.65;;;27.50;62.40;;;;;;7382762;19;20010;-70
2023/06/23 12:27:39;;;;;;;5.53;3.35;;;27.60;62.10;;;;;;7383393;19;20011;-73
2023/06/23 12:30:17;;;;;;;;;;;27.70;62.60;;;;;;7402535;19;20013;-73
2023/06/23 12:32:46;;;;;;;9.32;3.58;;;27.80;62.40;;;;;;7379700;19;19923;-73
2023/06/23 12:35:18;;;;;;;6.50;3.10;;;27.90;60.70;;;;;;7379782;19;20003;-73
2023/06/23 12:37:48;;;;;;;7.80;2.83;;;28.00;61.00;;;;;;7379302;19;20250;-75
2023/06/23 12:40:32;;;;;;;5.72;2.63;;;28.10;61.60;;;;;;7383151;19;20157;-75
2023/06/23 12:43:07;;;;;;;6.38;2.88;;;28.20;59.60;;;;;;7386142;19;20006;-77
2023/06/23 12:45:39;;;;;;;5.43;3.10;;;28.30;60.40;;;;;;7385234;19;20055;-75
2023/06/23 12:48:10;;;;;;;5.70;3.20;;;28.30;60.30;;;;;;7402402;19;20011;-75
2023/06/23 12:50:43;;;;;;;6.65;3.03;;;28.30;59.50;;;;;;7377270;19;19999;-73
2023/06/23 12:53:12;;;;;;;7.80;3.00;;;28.40;59.30;;;;;;7378971;19;20014;-72
2023/06/23 12:55:42;;;;;;;5.57;2.83;;;28.50;59.50;;;;;;7378996;19;20463;-71
2023/06/23 12:58:11;;;;;;;9.32;3.17;;;28.50;58.80;;;;;;7380266;19;20154;-72
2023/06/23 13:00:41;;;;;;;4.75;3.22;;;28.60;58.60;;;;;;7379866;19;20023;-72
2023/06/23 13:03:13;;;;;;;5.50;3.67;;;28.70;58.90;;;;;;7407365;19;20014;-73
2023/06/23 13:05:45;;;;;;;8.65;3.22;;;28.60;58.40;;;;;;7385902;19;20006;-71
2023/06/23 13:08:15;;;;;;;10.73;3.17;;;28.60;58.40;;;;;;7386288;19;20003;-75
2023/06/23 13:10:44;;;;;;;6.85;3.30;;;28.60;57.90;;;;;;7384497;19;20084;-73
2023/06/23 13:13:13;;;;;;;6.50;3.00;;;28.50;58.60;;;;;;7385643;19;20010;-74
2023/06/23 13:15:42;;;;;;;5.93;2.95;;;28.50;58.10;;;;;;7383072;19;20309;-74